sensor_id;sensor_type;location;lat;lon;timestamp;temperature;humidity
17893;DHT22;9072;51.918;4.380;2023-12-22T00:01:07;9.60;99.90
17893;DHT22;9072;51.918;4.380;2023-12-22T00:03:36;9.50;99.90
17893;DHT22;9072;51.918;4.380;2023-12-22T00:06:04;9.50;99.90
17893;DHT22;9072;51.918;4.380;2023-12-22T00:08:32;9.50;99.90
17893;DHT22;9072;51.918;4.380;2023-12-22T00:11:00;9.40;99.90
17893;DHT22;9072;51.918;4.380;2023-12-22T00:13:29;9.30;99.90
17893;DHT22;9072;51.918;4.380;2023-12-22T00:16:00;9.20;99.90
17893;DHT22;9072;51.918;4.380;2023-12-22T00:18:27;9.10;99.90
17893;DHT22;9072;51.918;4.380;2023-12-22T00:20:54;9.20;99.90
17893;DHT22;9072;51.918;4.380;2023-12-22T00:23:24;9.20;99.90
17893;DHT22;9072;51.918;4.380;2023-12-22T00:25:51;9.30;99.90
17893;DHT22;9072;51.918;4.380;2023-12-22T00:28:20;9.30;99.90
17893;DHT22;9072;51.918;4.380;2023-12-22T00:30:48;9.30;99.90
17893;DHT22;9072;51.918;4.380;2023-12-22T00:33:17;9.40;99.90
17893;DHT22;9072;51.918;4.380;2023-12-22T00:35:46;9.40;99.90
17893;DHT22;9072;51.918;4.380;2023-12-22T00:38:13;9.40;99.90
17893;DHT22;9072;51.918;4.380;2023-12-22T00:40:40;9.40;99.90
17893;DHT22;9072;51.918;4.380;2023-12-22T00:43:08;9.50;99.90
17893;DHT22;9072;51.918;4.380;2023-12-22T00:45:36;9.50;99.90
17893;DHT22;9072;51.918;4.380;2023-12-22T00:48:05;9.50;99.90
17893;DHT22;9072;51.918;4.380;2023-12-22T00:50:34;9.50;99.90
17893;DHT22;9072;51.918;4.380;2023-12-22T00:53:04;9.50;99.90
17893;DHT22;9072;51.918;4.380;2023-12-22T00:55:34;9.50;99.90
17893;DHT22;9072;51.918;4.380;2023-12-22T00:58:03;9.50;99.90
17893;DHT22;9072;51.918;4.380;2023-12-22T01:00:31;9.50;99.90
17893;DHT22;9072;51.918;4.380;2023-12-22T01:02:59;9.50;99.90
17893;DHT22;9072;51.918;4.380;2023-12-22T01:05:26;9.50;99.90
17893;DHT22;9072;51.918;4.380;2023-12-22T01:07:55;9.50;99.90
17893;DHT22;9072;51.918;4.380;2023-12-22T01:10:23;9.60;99.90
17893;DHT22;9072;51.918;4.380;2023-12-22T01:12:50;9.60;99.90
17893;DHT22;9072;51.918;4.380;2023-12-22T01:15:19;9.60;99.90
17893;DHT22;9072;51.918;4.380;2023-12-22T01:17:49;9.60;99.90
17893;DHT22;9072;51.918;4.380;2023-12-22T01:20:17;9.60;99.90
17893;DHT22;9072;51.918;4.380;2023-12-22T01:22:44;9.60;99.90
17893;DHT22;9072;51.918;4.380;2023-12-22T01:25:15;9.50;99.90
17893;DHT22;9072;51.918;4.380;2023-12-22T01:27:43;9.50;99.90
17893;DHT22;9072;51.918;4.380;2023-12-22T01:30:14;9.50;99.90
17893;DHT22;9072;51.918;4.380;2023-12-22T01:32:42;9.50;99.90
17893;DHT22;9072;51.918;4.380;2023-12-22T01:35:09;9.50;99.90
17893;DHT22;9072;51.918;4.380;2023-12-22T01:37:36;9.50;99.90
17893;DHT22;9072;51.918;4.380;2023-12-22T01:40:05;9.40;99.90
17893;DHT22;9072;51.918;4.380;2023-12-22T01:42:35;9.30;99.90
17893;DHT22;9072;51.918;4.380;2023-12-22T01:45:03;9.30;99.90
17893;DHT22;9072;51.918;4.380;2023-12-22T01:47:31;9.20;99.90
17893;DHT22;9072;51.918;4.380;2023-12-22T01:49:59;9.20;99.90
17893;DHT22;9072;51.918;4.380;2023-12-22T01:52:27;9.20;99.90
17893;DHT22;9072;51.918;4.380;2023-12-22T01:54:57;9.20;99.90
17893;DHT22;9072;51.918;4.380;2023-12-22T01:57:25;9.30;99.90
17893;DHT22;9072;51.918;4.380;2023-12-22T01:59:56;9.30;99.90
17893;DHT22;9072;51.918;4.380;2023-12-22T02:02:24;9.30;99.90
17893;DHT22;9072;51.918;4.380;2023-12-22T02:05:00;9.40;99.90
17893;DHT22;9072;51.918;4.380;2023-12-22T02:07:31;9.40;99.90
17893;DHT22;9072;51.918;4.380;2023-12-22T02:09:58;9.40;99.90
17893;DHT22;9072;51.918;4.380;2023-12-22T02:12:33;9.30;99.90
17893;DHT22;9072;51.918;4.380;2023-12-22T02:15:02;9.30;99.90
17893;DHT22;9072;51.918;4.380;2023-12-22T02:17:35;9.30;99.90
17893;DHT22;9072;51.918;4.380;2023-12-22T02:20:08;9.30;99.90
17893;DHT22;9072;51.918;4.380;2023-12-22T02:22:40;9.20;99.90
17893;DHT22;9072;51.918;4.380;2023-12-22T02:25:08;9.20;99.90
17893;DHT22;9072;51.918;4.380;2023-12-22T02:27:40;9.20;99.90
17893;DHT22;9072;51.918;4.380;2023-12-22T02:30:13;9.20;99.90
17893;DHT22;9072;51.918;4.380;2023-12-22T02:32:43;9.30;99.90
17893;DHT22;9072;51.918;4.380;2023-12-22T02:35:15;9.30;99.90
17893;DHT22;9072;51.918;4.380;2023-12-22T02:37:48;9.30;99.90
17893;DHT22;9072;51.918;4.380;2023-12-22T02:40:20;9.40;99.90
17893;DHT22;9072;51.918;4.380;2023-12-22T02:42:52;9.40;99.90
17893;DHT22;9072;51.918;4.380;2023-12-22T02:45:20;9.40;99.90
17893;DHT22;9072;51.918;4.380;2023-12-22T02:47:52;9.40;99.90
17893;DHT22;9072;51.918;4.380;2023-12-22T02:50:19;9.40;99.90
17893;DHT22;9072;51.918;4.380;2023-12-22T02:52:49;9.40;99.90
17893;DHT22;9072;51.918;4.380;2023-12-22T02:55:16;9.40;99.90
17893;DHT22;9072;51.918;4.380;2023-12-22T02:57:44;9.40;99.90
17893;DHT22;9072;51.918;4.380;2023-12-22T03:00:14;9.40;99.90
17893;DHT22;9072;51.918;4.380;2023-12-22T03:02:42;9.40;99.90
17893;DHT22;9072;51.918;4.380;2023-12-22T03:05:10;9.50;99.90
17893;DHT22;9072;51.918;4.380;2023-12-22T03:07:37;9.50;99.90
17893;DHT22;9072;51.918;4.380;2023-12-22T03:10:07;9.50;99.90
17893;DHT22;9072;51.918;4.380;2023-12-22T03:12:34;9.50;99.90
17893;DHT22;9072;51.918;4.380;2023-12-22T03:15:03;9.50;99.90
17893;DHT22;9072;51.918;4.380;2023-12-22T03:17:30;9.50;99.90
17893;DHT22;9072;51.918;4.380;2023-12-22T03:19:59;9.50;99.90
17893;DHT22;9072;51.918;4.380;2023-12-22T03:22:26;9.50;99.90
17893;DHT22;9072;51.918;4.380;2023-12-22T03:25:01;9.40;99.90
17893;DHT22;9072;51.918;4.380;2023-12-22T03:27:30;9.40;99.90
17893;DHT22;9072;51.918;4.380;2023-12-22T03:29:57;9.40;99.90
17893;DHT22;9072;51.918;4.380;2023-12-22T03:32:28;9.40;99.90
17893;DHT22;9072;51.918;4.380;2023-12-22T03:34:55;9.40;99.90
17893;DHT22;9072;51.918;4.380;2023-12-22T03:37:22;9.40;99.90
17893;DHT22;9072;51.918;4.380;2023-12-22T03:39:49;9.50;99.90
17893;DHT22;9072;51.918;4.380;2023-12-22T03:42:19;9.50;99.90
17893;DHT22;9072;51.918;4.380;2023-12-22T03:44:48;9.50;99.90
17893;DHT22;9072;51.918;4.380;2023-12-22T03:47:15;9.50;99.90
17893;DHT22;9072;51.918;4.380;2023-12-22T03:49:44;9.50;99.90
17893;DHT22;9072;51.918;4.380;2023-12-22T03:52:12;9.50;99.90
17893;DHT22;9072;51.918;4.380;2023-12-22T03:54:42;9.60;99.90
17893;DHT22;9072;51.918;4.380;2023-12-22T03:57:09;9.60;99.90
17893;DHT22;9072;51.918;4.380;2023-12-22T03:59:37;9.60;99.90
17893;DHT22;9072;51.918;4.380;2023-12-22T04:02:06;9.60;99.90
17893;DHT22;9072;51.918;4.380;2023-12-22T04:04:37;9.60;99.90
17893;DHT22;9072;51.918;4.380;2023-12-22T04:07:07;9.60;99.90
17893;DHT22;9072;51.918;4.380;2023-12-22T04:09:37;9.60;99.90
17893;DHT22;9072;51.918;4.380;2023-12-22T04:12:06;9.50;99.90
17893;DHT22;9072;51.918;4.380;2023-12-22T04:14:34;9.50;99.90
17893;DHT22;9072;51.918;4.380;2023-12-22T04:17:02;9.50;99.90
17893;DHT22;9072;51.918;4.380;2023-12-22T04:19:31;9.60;99.90
17893;DHT22;9072;51.918;4.380;2023-12-22T04:22:00;9.50;99.90
17893;DHT22;9072;51.918;4.380;2023-12-22T04:24:29;9.40;99.90
17893;DHT22;9072;51.918;4.380;2023-12-22T04:26:58;9.30;99.90
17893;DHT22;9072;51.918;4.380;2023-12-22T04:29:25;9.30;99.90
17893;DHT22;9072;51.918;4.380;2023-12-22T04:31:54;9.20;99.90
17893;DHT22;9072;51.918;4.380;2023-12-22T04:34:28;9.20;99.90
17893;DHT22;9072;51.918;4.380;2023-12-22T04:36:57;9.20;99.90
17893;DHT22;9072;51.918;4.380;2023-12-22T04:39:24;9.20;99.90
17893;DHT22;9072;51.918;4.380;2023-12-22T04:41:55;9.20;99.90
17893;DHT22;9072;51.918;4.380;2023-12-22T04:44:23;9.20;99.90
17893;DHT22;9072;51.918;4.380;2023-12-22T04:46:54;9.30;99.90
17893;DHT22;9072;51.918;4.380;2023-12-22T04:49:21;9.30;99.90
17893;DHT22;9072;51.918;4.380;2023-12-22T04:51:59;9.30;99.90
17893;DHT22;9072;51.918;4.380;2023-12-22T04:54:26;9.40;99.90
17893;DHT22;9072;51.918;4.380;2023-12-22T04:56:54;9.40;99.90
17893;DHT22;9072;51.918;4.380;2023-12-22T04:59:22;9.40;99.90
17893;DHT22;9072;51.918;4.380;2023-12-22T05:01:49;9.50;99.90
17893;DHT22;9072;51.918;4.380;2023-12-22T05:04:17;9.50;99.90
17893;DHT22;9072;51.918;4.380;2023-12-22T05:06:50;9.50;99.90
17893;DHT22;9072;51.918;4.380;2023-12-22T05:09:20;9.50;99.90
17893;DHT22;9072;51.918;4.380;2023-12-22T05:11:51;9.50;99.90
17893;DHT22;9072;51.918;4.380;2023-12-22T05:14:21;9.50;99.90
17893;DHT22;9072;51.918;4.380;2023-12-22T05:16:49;9.50;99.90
17893;DHT22;9072;51.918;4.380;2023-12-22T05:19:21;9.50;99.90
17893;DHT22;9072;51.918;4.380;2023-12-22T05:21:50;9.50;99.90
17893;DHT22;9072;51.918;4.380;2023-12-22T05:24:24;9.50;99.90
17893;DHT22;9072;51.918;4.380;2023-12-22T05:26:53;9.50;99.90
17893;DHT22;9072;51.918;4.380;2023-12-22T05:29:23;9.50;99.90
17893;DHT22;9072;51.918;4.380;2023-12-22T05:31:50;9.50;99.90
17893;DHT22;9072;51.918;4.380;2023-12-22T05:34:17;9.60;99.90
17893;DHT22;9072;51.918;4.380;2023-12-22T05:36:44;9.60;99.90
17893;DHT22;9072;51.918;4.380;2023-12-22T05:39:11;9.60;99.90
17893;DHT22;9072;51.918;4.380;2023-12-22T05:41:40;9.60;99.90
17893;DHT22;9072;51.918;4.380;2023-12-22T05:44:07;9.60;99.90
17893;DHT22;9072;51.918;4.380;2023-12-22T05:46:36;9.60;99.90
17893;DHT22;9072;51.918;4.380;2023-12-22T05:49:03;9.70;99.90
17893;DHT22;9072;51.918;4.380;2023-12-22T05:51:36;9.70;99.90
17893;DHT22;9072;51.918;4.380;2023-12-22T05:54:03;9.70;99.90
17893;DHT22;9072;51.918;4.380;2023-12-22T05:56:30;9.70;99.90
17893;DHT22;9072;51.918;4.380;2023-12-22T05:58:59;9.70;99.90
17893;DHT22;9072;51.918;4.380;2023-12-22T06:01:26;9.70;99.90
17893;DHT22;9072;51.918;4.380;2023-12-22T06:03:53;9.70;99.90
17893;DHT22;9072;51.918;4.380;2023-12-22T06:06:20;9.70;99.90
17893;DHT22;9072;51.918;4.380;2023-12-22T06:08:47;9.70;99.90
17893;DHT22;9072;51.918;4.380;2023-12-22T06:11:16;9.70;99.90
17893;DHT22;9072;51.918;4.380;2023-12-22T06:13:44;9.70;99.90
17893;DHT22;9072;51.918;4.380;2023-12-22T06:16:13;9.70;99.90
17893;DHT22;9072;51.918;4.380;2023-12-22T06:18:40;9.60;99.90
17893;DHT22;9072;51.918;4.380;2023-12-22T06:21:09;9.60;99.90
17893;DHT22;9072;51.918;4.380;2023-12-22T06:23:36;9.70;99.90
17893;DHT22;9072;51.918;4.380;2023-12-22T06:26:08;9.70;99.90
17893;DHT22;9072;51.918;4.380;2023-12-22T06:28:35;9.70;99.90
17893;DHT22;9072;51.918;4.380;2023-12-22T06:31:04;9.80;99.90
17893;DHT22;9072;51.918;4.380;2023-12-22T06:33:32;9.80;99.90
17893;DHT22;9072;51.918;4.380;2023-12-22T06:35:59;9.80;99.90
17893;DHT22;9072;51.918;4.380;2023-12-22T06:38:27;9.90;99.90
17893;DHT22;9072;51.918;4.380;2023-12-22T06:40:54;9.90;99.90
17893;DHT22;9072;51.918;4.380;2023-12-22T06:43:21;9.90;99.90
17893;DHT22;9072;51.918;4.380;2023-12-22T06:45:49;9.90;99.90
17893;DHT22;9072;51.918;4.380;2023-12-22T06:48:20;9.90;99.90
17893;DHT22;9072;51.918;4.380;2023-12-22T06:50:49;9.90;99.90
17893;DHT22;9072;51.918;4.380;2023-12-22T06:53:18;9.90;99.90
17893;DHT22;9072;51.918;4.380;2023-12-22T06:55:46;9.90;99.90
17893;DHT22;9072;51.918;4.380;2023-12-22T06:58:13;9.90;99.90
17893;DHT22;9072;51.918;4.380;2023-12-22T07:00:41;9.90;99.90
17893;DHT22;9072;51.918;4.380;2023-12-22T07:03:09;9.90;99.90
17893;DHT22;9072;51.918;4.380;2023-12-22T07:05:38;9.90;99.90
17893;DHT22;9072;51.918;4.380;2023-12-22T07:08:24;9.90;99.90
17893;DHT22;9072;51.918;4.380;2023-12-22T07:10:52;9.80;99.90
17893;DHT22;9072;51.918;4.380;2023-12-22T07:13:19;9.80;99.90
17893;DHT22;9072;51.918;4.380;2023-12-22T07:15:47;9.80;99.90
17893;DHT22;9072;51.918;4.380;2023-12-22T07:18:16;9.80;99.90
17893;DHT22;9072;51.918;4.380;2023-12-22T07:20:46;9.70;99.90
17893;DHT22;9072;51.918;4.380;2023-12-22T07:23:15;9.70;99.90
17893;DHT22;9072;51.918;4.380;2023-12-22T07:25:44;9.70;99.90
17893;DHT22;9072;51.918;4.380;2023-12-22T07:28:12;9.70;99.90
17893;DHT22;9072;51.918;4.380;2023-12-22T07:30:39;9.60;99.90
17893;DHT22;9072;51.918;4.380;2023-12-22T07:33:08;9.60;99.90
17893;DHT22;9072;51.918;4.380;2023-12-22T07:35:41;9.60;99.90
17893;DHT22;9072;51.918;4.380;2023-12-22T07:38:08;9.60;99.90
17893;DHT22;9072;51.918;4.380;2023-12-22T07:40:37;9.50;99.90
17893;DHT22;9072;51.918;4.380;2023-12-22T07:43:04;9.50;99.90
17893;DHT22;9072;51.918;4.380;2023-12-22T07:45:32;9.50;99.90
17893;DHT22;9072;51.918;4.380;2023-12-22T07:48:01;9.40;99.90
17893;DHT22;9072;51.918;4.380;2023-12-22T07:50:28;9.40;99.90
17893;DHT22;9072;51.918;4.380;2023-12-22T07:52:56;9.40;99.90
17893;DHT22;9072;51.918;4.380;2023-12-22T07:55:26;9.40;99.90
17893;DHT22;9072;51.918;4.380;2023-12-22T07:57:56;9.30;99.90
17893;DHT22;9072;51.918;4.380;2023-12-22T08:00:23;9.30;99.90
17893;DHT22;9072;51.918;4.380;2023-12-22T08:02:51;9.30;99.90
17893;DHT22;9072;51.918;4.380;2023-12-22T08:05:20;9.20;99.90
17893;DHT22;9072;51.918;4.380;2023-12-22T08:07:49;9.20;99.90
17893;DHT22;9072;51.918;4.380;2023-12-22T08:10:16;9.20;99.90
17893;DHT22;9072;51.918;4.380;2023-12-22T08:12:44;9.20;99.90
17893;DHT22;9072;51.918;4.380;2023-12-22T08:15:13;9.20;99.90
17893;DHT22;9072;51.918;4.380;2023-12-22T08:17:46;9.20;99.90
17893;DHT22;9072;51.918;4.380;2023-12-22T08:20:17;9.20;99.90
17893;DHT22;9072;51.918;4.380;2023-12-22T08:22:50;9.20;99.90
17893;DHT22;9072;51.918;4.380;2023-12-22T08:25:17;9.30;99.90
17893;DHT22;9072;51.918;4.380;2023-12-22T08:27:45;9.30;99.90
17893;DHT22;9072;51.918;4.380;2023-12-22T08:30:14;9.30;99.90
17893;DHT22;9072;51.918;4.380;2023-12-22T08:32:41;9.30;99.90
17893;DHT22;9072;51.918;4.380;2023-12-22T08:35:08;9.40;99.90
17893;DHT22;9072;51.918;4.380;2023-12-22T08:37:35;9.40;99.90
17893;DHT22;9072;51.918;4.380;2023-12-22T08:40:03;9.40;99.90
17893;DHT22;9072;51.918;4.380;2023-12-22T08:42:31;9.50;99.90
17893;DHT22;9072;51.918;4.380;2023-12-22T08:44:58;9.60;99.90
17893;DHT22;9072;51.918;4.380;2023-12-22T08:47:26;9.60;99.90
17893;DHT22;9072;51.918;4.380;2023-12-22T08:49:53;9.60;99.90
17893;DHT22;9072;51.918;4.380;2023-12-22T08:52:20;9.70;99.90
17893;DHT22;9072;51.918;4.380;2023-12-22T08:54:47;9.70;99.90
17893;DHT22;9072;51.918;4.380;2023-12-22T08:57:14;9.80;99.90
17893;DHT22;9072;51.918;4.380;2023-12-22T08:59:41;9.70;99.90
17893;DHT22;9072;51.918;4.380;2023-12-22T09:02:08;9.70;99.90
17893;DHT22;9072;51.918;4.380;2023-12-22T09:04:37;9.80;99.90
17893;DHT22;9072;51.918;4.380;2023-12-22T09:07:04;9.80;99.90
17893;DHT22;9072;51.918;4.380;2023-12-22T09:09:31;9.80;99.90
17893;DHT22;9072;51.918;4.380;2023-12-22T09:11:58;9.90;99.90
17893;DHT22;9072;51.918;4.380;2023-12-22T09:14:25;9.90;99.90
17893;DHT22;9072;51.918;4.380;2023-12-22T09:16:52;9.90;99.90
17893;DHT22;9072;51.918;4.380;2023-12-22T09:19:21;9.90;99.90
17893;DHT22;9072;51.918;4.380;2023-12-22T09:21:50;10.00;99.90
17893;DHT22;9072;51.918;4.380;2023-12-22T09:24:17;10.00;99.90
17893;DHT22;9072;51.918;4.380;2023-12-22T09:26:44;10.10;99.90
17893;DHT22;9072;51.918;4.380;2023-12-22T09:29:11;10.10;99.90
17893;DHT22;9072;51.918;4.380;2023-12-22T09:31:38;10.20;99.90
17893;DHT22;9072;51.918;4.380;2023-12-22T09:34:05;10.20;99.90
17893;DHT22;9072;51.918;4.380;2023-12-22T09:36:32;10.20;99.90
17893;DHT22;9072;51.918;4.380;2023-12-22T09:39:00;10.30;99.90
17893;DHT22;9072;51.918;4.380;2023-12-22T09:41:28;10.30;99.90
17893;DHT22;9072;51.918;4.380;2023-12-22T09:43:56;10.30;99.90
17893;DHT22;9072;51.918;4.380;2023-12-22T09:46:25;10.30;99.90
17893;DHT22;9072;51.918;4.380;2023-12-22T09:48:53;10.40;99.90
17893;DHT22;9072;51.918;4.380;2023-12-22T09:51:23;10.40;99.90
17893;DHT22;9072;51.918;4.380;2023-12-22T09:53:51;10.40;99.90
17893;DHT22;9072;51.918;4.380;2023-12-22T09:56:21;10.50;99.90
17893;DHT22;9072;51.918;4.380;2023-12-22T09:58:51;10.50;99.90
17893;DHT22;9072;51.918;4.380;2023-12-22T10:01:20;10.50;99.90
17893;DHT22;9072;51.918;4.380;2023-12-22T10:03:49;10.50;99.90
17893;DHT22;9072;51.918;4.380;2023-12-22T10:06:16;10.60;99.90
17893;DHT22;9072;51.918;4.380;2023-12-22T10:08:44;10.60;99.90
17893;DHT22;9072;51.918;4.380;2023-12-22T10:11:17;10.60;99.90
17893;DHT22;9072;51.918;4.380;2023-12-22T10:13:49;10.60;99.90
17893;DHT22;9072;51.918;4.380;2023-12-22T10:16:18;10.60;99.90
17893;DHT22;9072;51.918;4.380;2023-12-22T10:18:45;10.60;99.90
17893;DHT22;9072;51.918;4.380;2023-12-22T10:21:12;10.70;99.90
17893;DHT22;9072;51.918;4.380;2023-12-22T10:23:39;10.60;99.90
17893;DHT22;9072;51.918;4.380;2023-12-22T10:26:06;10.70;99.90
17893;DHT22;9072;51.918;4.380;2023-12-22T10:28:36;10.70;99.90
17893;DHT22;9072;51.918;4.380;2023-12-22T10:31:06;10.70;99.90
17893;DHT22;9072;51.918;4.380;2023-12-22T10:33:35;10.70;99.90
17893;DHT22;9072;51.918;4.380;2023-12-22T10:36:12;10.70;99.90
17893;DHT22;9072;51.918;4.380;2023-12-22T10:38:40;10.80;99.90
17893;DHT22;9072;51.918;4.380;2023-12-22T10:41:10;10.80;99.90
17893;DHT22;9072;51.918;4.380;2023-12-22T10:43:38;10.80;99.90
17893;DHT22;9072;51.918;4.380;2023-12-22T10:46:18;10.80;99.90
17893;DHT22;9072;51.918;4.380;2023-12-22T10:48:45;10.90;99.90
17893;DHT22;9072;51.918;4.380;2023-12-22T10:51:14;10.90;99.90
17893;DHT22;9072;51.918;4.380;2023-12-22T10:53:44;10.90;99.90
17893;DHT22;9072;51.918;4.380;2023-12-22T10:56:12;10.90;99.90
17893;DHT22;9072;51.918;4.380;2023-12-22T10:58:47;10.90;99.90
17893;DHT22;9072;51.918;4.380;2023-12-22T11:01:24;10.90;99.90
17893;DHT22;9072;51.918;4.380;2023-12-22T11:04:02;10.90;99.90
17893;DHT22;9072;51.918;4.380;2023-12-22T11:06:35;10.90;99.90
17893;DHT22;9072;51.918;4.380;2023-12-22T11:09:07;10.90;99.90
17893;DHT22;9072;51.918;4.380;2023-12-22T11:11:38;10.90;99.90
17893;DHT22;9072;51.918;4.380;2023-12-22T11:14:07;10.90;99.90
17893;DHT22;9072;51.918;4.380;2023-12-22T11:16:38;10.90;99.90
17893;DHT22;9072;51.918;4.380;2023-12-22T11:19:14;10.90;99.90
17893;DHT22;9072;51.918;4.380;2023-12-22T11:21:43;11.00;99.90
17893;DHT22;9072;51.918;4.380;2023-12-22T11:24:15;11.00;99.90
17893;DHT22;9072;51.918;4.380;2023-12-22T11:26:46;11.00;99.90
17893;DHT22;9072;51.918;4.380;2023-12-22T11:29:16;11.10;99.90
17893;DHT22;9072;51.918;4.380;2023-12-22T11:31:47;11.10;99.90
17893;DHT22;9072;51.918;4.380;2023-12-22T11:34:26;11.10;99.90
17893;DHT22;9072;51.918;4.380;2023-12-22T11:36:57;11.10;99.90
17893;DHT22;9072;51.918;4.380;2023-12-22T11:39:27;11.10;99.90
17893;DHT22;9072;51.918;4.380;2023-12-22T11:41:56;11.10;99.90
17893;DHT22;9072;51.918;4.380;2023-12-22T11:44:26;11.20;99.90
17893;DHT22;9072;51.918;4.380;2023-12-22T11:47:07;11.10;99.90
17893;DHT22;9072;51.918;4.380;2023-12-22T11:49:36;11.10;99.90
17893;DHT22;9072;51.918;4.380;2023-12-22T11:52:31;11.10;99.90
17893;DHT22;9072;51.918;4.380;2023-12-22T11:55:04;11.10;99.90
17893;DHT22;9072;51.918;4.380;2023-12-22T11:57:40;11.10;99.90
17893;DHT22;9072;51.918;4.380;2023-12-22T12:00:41;11.10;99.90
17893;DHT22;9072;51.918;4.380;2023-12-22T12:03:17;11.10;99.90
17893;DHT22;9072;51.918;4.380;2023-12-22T12:05:47;11.00;99.90
17893;DHT22;9072;51.918;4.380;2023-12-22T12:08:29;11.00;99.90
17893;DHT22;9072;51.918;4.380;2023-12-22T12:10:57;11.00;99.90
17893;DHT22;9072;51.918;4.380;2023-12-22T12:13:31;11.00;99.90
17893;DHT22;9072;51.918;4.380;2023-12-22T12:16:08;11.10;99.90
17893;DHT22;9072;51.918;4.380;2023-12-22T12:18:52;11.10;99.90
17893;DHT22;9072;51.918;4.380;2023-12-22T12:21:21;11.00;99.90
17893;DHT22;9072;51.918;4.380;2023-12-22T12:23:50;11.00;99.90
17893;DHT22;9072;51.918;4.380;2023-12-22T12:26:21;11.00;99.90
17893;DHT22;9072;51.918;4.380;2023-12-22T12:28:54;11.00;99.90
17893;DHT22;9072;51.918;4.380;2023-12-22T12:31:36;11.00;99.90
17893;DHT22;9072;51.918;4.380;2023-12-22T12:34:11;11.00;99.90
17893;DHT22;9072;51.918;4.380;2023-12-22T12:36:40;11.00;99.90
17893;DHT22;9072;51.918;4.380;2023-12-22T12:39:15;10.90;99.90
17893;DHT22;9072;51.918;4.380;2023-12-22T12:41:52;11.00;99.90
17893;DHT22;9072;51.918;4.380;2023-12-22T12:44:24;11.00;99.90
17893;DHT22;9072;51.918;4.380;2023-12-22T12:46:56;11.00;99.90
17893;DHT22;9072;51.918;4.380;2023-12-22T12:49:35;11.00;99.90
17893;DHT22;9072;51.918;4.380;2023-12-22T12:52:11;11.00;99.90
17893;DHT22;9072;51.918;4.380;2023-12-22T12:54:43;11.00;99.90
17893;DHT22;9072;51.918;4.380;2023-12-22T12:57:15;11.00;99.90
17893;DHT22;9072;51.918;4.380;2023-12-22T12:59:45;11.00;99.90
17893;DHT22;9072;51.918;4.380;2023-12-22T13:02:14;11.00;99.90
17893;DHT22;9072;51.918;4.380;2023-12-22T13:04:43;11.00;99.90
17893;DHT22;9072;51.918;4.380;2023-12-22T13:07:10;11.00;99.90
17893;DHT22;9072;51.918;4.380;2023-12-22T13:09:39;11.00;99.90
17893;DHT22;9072;51.918;4.380;2023-12-22T13:12:08;11.10;99.90
17893;DHT22;9072;51.918;4.380;2023-12-22T13:14:38;11.10;99.90
17893;DHT22;9072;51.918;4.380;2023-12-22T13:17:06;11.10;99.90
17893;DHT22;9072;51.918;4.380;2023-12-22T13:19:35;11.00;99.90
17893;DHT22;9072;51.918;4.380;2023-12-22T13:22:04;11.10;99.90
17893;DHT22;9072;51.918;4.380;2023-12-22T13:24:32;11.10;99.90
17893;DHT22;9072;51.918;4.380;2023-12-22T13:27:00;11.00;99.90
17893;DHT22;9072;51.918;4.380;2023-12-22T13:29:29;11.00;99.90
17893;DHT22;9072;51.918;4.380;2023-12-22T13:31:58;11.00;99.90
17893;DHT22;9072;51.918;4.380;2023-12-22T13:34:26;11.00;99.90
17893;DHT22;9072;51.918;4.380;2023-12-22T13:36:55;11.00;99.90
17893;DHT22;9072;51.918;4.380;2023-12-22T13:39:27;11.00;99.90
17893;DHT22;9072;51.918;4.380;2023-12-22T13:41:56;11.00;99.90
17893;DHT22;9072;51.918;4.380;2023-12-22T13:44:23;11.00;99.90
17893;DHT22;9072;51.918;4.380;2023-12-22T13:46:53;11.00;99.90
17893;DHT22;9072;51.918;4.380;2023-12-22T13:49:21;11.00;99.90
17893;DHT22;9072;51.918;4.380;2023-12-22T13:51:48;11.10;99.90
17893;DHT22;9072;51.918;4.380;2023-12-22T13:54:15;11.10;99.90
17893;DHT22;9072;51.918;4.380;2023-12-22T13:56:44;11.00;99.90
17893;DHT22;9072;51.918;4.380;2023-12-22T13:59:12;11.00;99.90
17893;DHT22;9072;51.918;4.380;2023-12-22T14:01:41;11.00;99.90
17893;DHT22;9072;51.918;4.380;2023-12-22T14:04:09;11.10;99.90
17893;DHT22;9072;51.918;4.380;2023-12-22T14:06:37;11.10;99.90
17893;DHT22;9072;51.918;4.380;2023-12-22T14:09:05;11.10;99.90
17893;DHT22;9072;51.918;4.380;2023-12-22T14:11:32;11.10;99.90
17893;DHT22;9072;51.918;4.380;2023-12-22T14:14:01;11.10;99.90
17893;DHT22;9072;51.918;4.380;2023-12-22T14:16:28;11.10;99.90
17893;DHT22;9072;51.918;4.380;2023-12-22T14:18:57;11.20;99.90
17893;DHT22;9072;51.918;4.380;2023-12-22T14:21:24;11.20;99.90
17893;DHT22;9072;51.918;4.380;2023-12-22T14:23:54;11.20;99.90
17893;DHT22;9072;51.918;4.380;2023-12-22T14:26:22;11.10;99.90
17893;DHT22;9072;51.918;4.380;2023-12-22T14:28:50;11.20;99.90
17893;DHT22;9072;51.918;4.380;2023-12-22T14:31:19;11.10;99.90
17893;DHT22;9072;51.918;4.380;2023-12-22T14:33:47;11.10;99.90
17893;DHT22;9072;51.918;4.380;2023-12-22T14:36:16;11.10;99.90
17893;DHT22;9072;51.918;4.380;2023-12-22T14:38:43;11.20;99.90
17893;DHT22;9072;51.918;4.380;2023-12-22T14:41:10;11.20;99.90
17893;DHT22;9072;51.918;4.380;2023-12-22T14:43:37;11.20;99.90
17893;DHT22;9072;51.918;4.380;2023-12-22T14:46:05;11.20;99.90
17893;DHT22;9072;51.918;4.380;2023-12-22T14:48:34;11.20;99.90
17893;DHT22;9072;51.918;4.380;2023-12-22T14:51:01;11.20;99.90
17893;DHT22;9072;51.918;4.380;2023-12-22T14:53:28;11.20;99.90
17893;DHT22;9072;51.918;4.380;2023-12-22T14:55:56;11.20;99.90
17893;DHT22;9072;51.918;4.380;2023-12-22T14:58:25;11.10;99.90
17893;DHT22;9072;51.918;4.380;2023-12-22T15:00:52;11.10;99.90
17893;DHT22;9072;51.918;4.380;2023-12-22T15:03:19;11.10;99.90
17893;DHT22;9072;51.918;4.380;2023-12-22T15:05:48;11.10;99.90
17893;DHT22;9072;51.918;4.380;2023-12-22T15:08:15;11.10;99.90
17893;DHT22;9072;51.918;4.380;2023-12-22T15:10:42;11.00;99.90
17893;DHT22;9072;51.918;4.380;2023-12-22T15:13:12;11.00;99.90
17893;DHT22;9072;51.918;4.380;2023-12-22T15:15:39;11.00;99.90
17893;DHT22;9072;51.918;4.380;2023-12-22T15:18:07;11.00;99.90
17893;DHT22;9072;51.918;4.380;2023-12-22T15:20:34;11.00;99.90
17893;DHT22;9072;51.918;4.380;2023-12-22T15:23:06;10.90;99.90
17893;DHT22;9072;51.918;4.380;2023-12-22T15:25:34;10.80;99.90
17893;DHT22;9072;51.918;4.380;2023-12-22T15:28:01;10.70;99.90
17893;DHT22;9072;51.918;4.380;2023-12-22T15:30:29;10.50;99.90
17893;DHT22;9072;51.918;4.380;2023-12-22T15:32:58;10.50;99.90
17893;DHT22;9072;51.918;4.380;2023-12-22T15:35:25;10.50;99.90
17893;DHT22;9072;51.918;4.380;2023-12-22T15:37:54;10.50;99.90
17893;DHT22;9072;51.918;4.380;2023-12-22T15:40:23;10.50;99.90
17893;DHT22;9072;51.918;4.380;2023-12-22T15:42:50;10.50;99.90
17893;DHT22;9072;51.918;4.380;2023-12-22T15:45:17;10.50;99.90
17893;DHT22;9072;51.918;4.380;2023-12-22T15:47:46;10.50;99.90
17893;DHT22;9072;51.918;4.380;2023-12-22T15:50:14;10.50;99.90
17893;DHT22;9072;51.918;4.380;2023-12-22T15:52:42;10.60;99.90
17893;DHT22;9072;51.918;4.380;2023-12-22T15:55:09;10.60;99.90
17893;DHT22;9072;51.918;4.380;2023-12-22T15:57:43;10.60;99.90
17893;DHT22;9072;51.918;4.380;2023-12-22T16:00:11;10.60;99.90
17893;DHT22;9072;51.918;4.380;2023-12-22T16:02:39;10.60;99.90
17893;DHT22;9072;51.918;4.380;2023-12-22T16:05:07;10.60;99.90
17893;DHT22;9072;51.918;4.380;2023-12-22T16:07:37;10.60;99.90